Time;durP1;ratioP1;P1;durP2;ratioP2;P2;SDS_P1;SDS_P2;PMS_P1;PMS_P2;Temp;Humidity;BMP_temperature;BMP_pressure;BME280_temperature;BME280_humidity;BME280_pressure;Samples;Min_cycle;Max_cycle;Signal;HPM_P1;HPM_P2
2022/08/06 00:01:29;;;;;;;2.20;1.70;;;13.20;37.60;;;;;;5033496;28;20176;-68
2022/08/06 00:03:55;;;;;;;1.80;1.70;;;13.20;83.90;;;;;;5032415;28;20195;-74
2022/08/06 00:06:20;;;;;;;2.60;2.20;;;13.10;85.40;;;;;;5031005;28;20225;-75
2022/08/06 00:08:46;;;;;;;4.13;2.07;;;13.10;88.80;;;;;;5033086;28;20187;-67
2022/08/06 00:11:12;;;;;;;3.10;1.90;;;13.20;92.80;;;;;;5033369;28;20214;-68
2022/08/06 00:13:37;;;;;;;1.77;1.63;;;13.20;93.00;;;;;;5031699;28;20179;-67
2022/08/06 00:16:03;;;;;;;2.17;1.53;;;13.10;93.10;;;;;;5032387;28;20168;-74
2022/08/06 00:18:29;;;;;;;1.70;1.50;;;13.10;92.70;;;;;;5031927;28;20602;-74
2022/08/06 00:20:54;;;;;;;1.70;1.60;;;13.10;68.30;;;;;;5032917;28;20210;-68
2022/08/06 00:23:20;;;;;;;1.97;1.87;;;13.10;90.20;;;;;;5032884;28;20171;-68
2022/08/06 00:25:46;;;;;;;4.00;2.10;;;13.10;84.10;;;;;;5032985;28;20168;-67
2022/08/06 00:28:12;;;;;;;3.77;2.13;;;13.10;80.90;;;;;;5031512;28;20862;-75
2022/08/06 00:30:37;;;;;;;2.33;2.00;;;13.10;90.00;;;;;;5033022;28;20198;-67
2022/08/06 00:33:03;;;;;;;2.90;2.60;;;13.00;92.50;;;;;;5031772;28;20748;-67
2022/08/06 00:35:29;;;;;;;2.00;1.87;;;13.00;91.70;;;;;;5032866;28;20206;-68
2022/08/06 00:37:56;;;;;;;2.60;2.20;;;13.00;90.70;;;;;;5031617;28;20197;-75
2022/08/06 00:40:22;;;;;;;1.90;1.80;;;12.90;91.00;;;;;;5031395;28;20186;-75
2022/08/06 00:42:49;;;;;;;2.80;2.03;;;13.00;84.20;;;;;;5032614;28;20426;-75
2022/08/06 00:45:14;;;;;;;2.27;2.07;;;13.00;88.80;;;;;;5032848;28;20411;-75
2022/08/06 00:47:40;;;;;;;1.77;1.63;;;13.00;79.20;;;;;;5031817;28;20472;-67
2022/08/06 00:50:06;;;;;;;2.43;2.00;;;13.00;89.20;;;;;;5033007;28;20183;-75
2022/08/06 00:52:32;;;;;;;2.90;2.00;;;13.00;84.70;;;;;;5032595;28;20182;-68
2022/08/06 00:54:57;;;;;;;1.80;1.70;;;13.00;81.90;;;;;;5032996;28;20917;-75
2022/08/06 00:57:23;;;;;;;2.17;2.00;;;13.00;68.60;;;;;;5030856;28;20207;-67
2022/08/06 00:59:49;;;;;;;2.03;1.93;;;13.00;66.60;;;;;;5032926;28;20167;-75
2022/08/06 01:02:14;;;;;;;1.70;1.60;;;13.00;68.40;;;;;;5032700;28;20188;-75
2022/08/06 01:04:40;;;;;;;1.60;1.50;;;13.00;64.70;;;;;;5032976;28;20576;-68
2022/08/06 01:07:06;;;;;;;2.07;1.80;;;12.90;68.60;;;;;;5031422;28;20203;-75
2022/08/06 01:09:31;;;;;;;3.07;2.03;;;12.90;67.80;;;;;;5032788;28;20281;-75
2022/08/06 01:11:57;;;;;;;3.30;2.37;;;12.90;91.60;;;;;;5034680;28;20167;-67
2022/08/06 01:14:22;;;;;;;6.20;2.43;;;12.90;81.30;;;;;;5035875;28;20179;-75
2022/08/06 01:16:58;;;;;;;1.83;1.73;;;12.90;77.20;;;;;;5033726;28;20270;-68
2022/08/06 01:19:52;;;;;;;2.10;1.90;;;12.90;70.60;;;;;;5036365;28;20218;-75
2022/08/06 01:22:35;;;;;;;2.60;2.13;;;12.90;71.60;;;;;;5035740;28;20446;-76
2022/08/06 01:25:20;;;;;;;1.80;1.70;;;12.80;78.70;;;;;;5035932;28;20445;-75
2022/08/06 01:28:00;;;;;;;1.83;1.70;;;12.80;51.30;;;;;;5034673;28;20962;-68
2022/08/06 01:30:33;;;;;;;4.27;2.10;;;12.70;60.70;;;;;;5035172;28;20418;-75
2022/08/06 01:33:09;;;;;;;2.57;2.37;;;12.70;65.80;;;;;;5035792;28;20759;-67
2022/08/06 01:35:39;;;;;;;2.37;1.90;;;12.70;61.20;;;;;;5035691;28;20459;-75
2022/08/06 01:38:17;;;;;;;4.80;1.87;;;12.70;54.00;;;;;;5034771;28;20426;-68
2022/08/06 01:40:46;;;;;;;2.20;1.93;;;12.70;85.10;;;;;;5035397;28;20404;-69
2022/08/06 01:43:15;;;;;;;2.20;2.00;;;12.70;71.40;;;;;;5034274;28;20422;-67
2022/08/06 01:45:42;;;;;;;1.80;1.70;;;12.70;80.70;;;;;;5035399;28;20466;-67
2022/08/06 01:48:13;;;;;;;3.57;2.00;;;12.70;73.40;;;;;;5034212;28;20458;-75
2022/08/06 01:50:41;;;;;;;2.07;1.97;;;12.60;58.40;;;;;;5035455;28;20457;-68
2022/08/06 01:53:11;;;;;;;3.60;2.00;;;12.60;82.50;;;;;;5035489;28;20409;-68
2022/08/06 01:55:44;;;;;;;2.40;2.20;;;12.70;92.00;;;;;;5035184;28;20433;-75
2022/08/06 01:58:12;;;;;;;2.07;1.97;;;12.70;92.60;;;;;;5034594;28;20428;-76
2022/08/06 02:00:42;;;;;;;2.40;2.03;;;12.70;88.20;;;;;;5035276;28;20475;-76
2022/08/06 02:03:14;;;;;;;2.40;2.20;;;12.60;83.90;;;;;;5035191;28;20399;-68
2022/08/06 02:05:41;;;;;;;2.90;2.23;;;12.60;99.90;;;;;;5033769;28;20437;-75
2022/08/06 02:08:11;;;;;;;1.70;1.60;;;12.60;97.40;;;;;;5034132;28;20585;-68
2022/08/06 02:10:38;;;;;;;2.27;2.13;;;12.60;93.90;;;;;;5035424;28;20433;-67
2022/08/06 02:13:05;;;;;;;2.00;1.90;;;12.60;98.00;;;;;;5035460;28;20430;-71
2022/08/06 02:15:34;;;;;;;2.10;2.00;;;12.50;98.70;;;;;;5034937;28;20434;-70
2022/08/06 02:18:04;;;;;;;2.50;1.70;;;12.50;99.90;;;;;;5032916;28;20435;-75
2022/08/06 02:20:37;;;;;;;3.73;1.90;;;12.50;99.90;;;;;;5035474;28;20468;-70
2022/08/06 02:23:06;;;;;;;2.13;2.03;;;12.50;99.90;;;;;;5035340;28;20492;-75
2022/08/06 02:25:33;;;;;;;2.73;2.17;;;12.50;99.90;;;;;;5034489;28;20470;-77
2022/08/06 02:28:03;;;;;;;2.47;2.13;;;12.50;92.90;;;;;;5033781;28;20466;-67
2022/08/06 02:30:35;;;;;;;1.73;1.63;;;12.50;92.90;;;;;;5034529;28;20778;-77
2022/08/06 02:33:01;;;;;;;3.40;2.10;;;12.50;93.80;;;;;;5034716;28;20756;-75
2022/08/06 02:35:29;;;;;;;3.00;2.40;;;12.40;93.50;;;;;;5034379;28;20426;-67
2022/08/06 02:38:06;;;;;;;2.10;2.00;;;12.40;96.90;;;;;;5033687;28;20222;-67
2022/08/06 02:40:35;;;;;;;2.83;2.63;;;12.40;93.50;;;;;;5033963;28;20461;-76
2022/08/06 02:43:07;;;;;;;2.20;1.77;;;12.30;93.10;;;;;;5034544;28;20428;-78
2022/08/06 02:45:37;;;;;;;2.13;2.03;;;12.30;99.90;;;;;;5034079;28;20434;-75
2022/08/06 02:48:23;;;;;;;1.90;1.80;;;12.20;92.80;;;;;;5033454;28;20811;-69
2022/08/06 02:50:50;;;;;;;2.47;2.27;;;12.20;92.40;;;;;;5034156;28;20429;-78
2022/08/06 02:53:19;;;;;;;2.00;1.90;;;12.20;92.90;;;;;;5034362;28;20799;-68
2022/08/06 02:55:48;;;;;;;2.27;2.17;;;12.20;92.80;;;;;;5034812;28;20444;-76
2022/08/06 02:58:25;;;;;;;2.17;1.97;;;12.20;92.90;;;;;;5031992;28;20438;-70
2022/08/06 03:00:52;;;;;;;5.10;2.00;;;12.20;93.20;;;;;;5034097;28;20449;-78
2022/08/06 03:03:22;;;;;;;2.07;1.97;;;12.20;92.90;;;;;;5034293;28;20744;-70
2022/08/06 03:05:50;;;;;;;1.70;1.60;;;12.10;93.10;;;;;;5033716;28;20874;-70
2022/08/06 03:08:20;;;;;;;2.90;2.70;;;12.10;92.90;;;;;;5033268;28;20537;-78
2022/08/06 03:10:47;;;;;;;2.37;2.10;;;12.10;75.30;;;;;;5033803;28;20414;-78
2022/08/06 03:13:13;;;;;;;2.23;1.60;;;12.10;88.60;;;;;;5033595;28;20434;-78
2022/08/06 03:15:41;;;;;;;3.73;2.13;;;12.10;90.70;;;;;;5032620;28;20479;-70
2022/08/06 03:18:08;;;;;;;2.10;2.00;;;12.10;63.70;;;;;;5032940;28;20422;-70
2022/08/06 03:20:35;;;;;;;2.10;2.00;;;12.00;78.70;;;;;;5032373;28;20946;-77
2022/08/06 03:23:06;;;;;;;3.47;2.37;;;12.00;78.40;;;;;;5033819;28;20402;-70
2022/08/06 03:25:32;;;;;;;2.40;2.20;;;12.00;81.80;;;;;;5033403;28;20957;-78
2022/08/06 03:27:59;;;;;;;3.70;2.50;;;12.00;73.70;;;;;;5032392;28;20462;-77
2022/08/06 03:30:26;;;;;;;2.47;2.27;;;12.00;76.90;;;;;;5033948;28;20472;-71
2022/08/06 03:32:54;;;;;;;1.83;1.73;;;11.90;91.10;;;;;;5031593;28;20410;-70
2022/08/06 03:35:21;;;;;;;1.83;1.73;;;12.00;80.00;;;;;;5033663;28;20768;-78
2022/08/06 03:37:49;;;;;;;2.33;2.03;;;11.90;91.80;;;;;;5032630;28;20422;-75
2022/08/06 03:40:17;;;;;;;2.00;1.90;;;12.00;92.90;;;;;;5032222;28;20468;-78
2022/08/06 03:42:42;;;;;;;2.27;2.17;;;12.00;99.90;;;;;;5033579;28;20417;-78
2022/08/06 03:45:09;;;;;;;2.37;2.27;;;12.00;94.10;;;;;;5033256;28;20896;-78
2022/08/06 03:47:44;;;;;;;4.40;2.10;;;12.00;93.20;;;;;;5032484;28;20207;-69
2022/08/06 03:50:14;;;;;;;4.13;2.40;;;12.00;96.60;;;;;;5032560;28;20399;-70
2022/08/06 03:52:44;;;;;;;1.80;1.70;;;12.00;92.60;;;;;;5033496;28;20401;-78
2022/08/06 03:55:20;;;;;;;2.10;2.00;;;12.00;92.80;;;;;;5033184;28;20933;-70
2022/08/06 03:57:49;;;;;;;6.93;2.53;;;12.10;99.90;;;;;;5032570;28;20437;-78
2022/08/06 04:00:19;;;;;;;2.10;1.90;;;12.10;99.90;;;;;;5033185;28;20521;-78
2022/08/06 04:02:52;;;;;;;3.23;2.20;;;12.10;99.90;;;;;;5033905;28;20441;-70
2022/08/06 04:05:26;;;;;;;2.40;2.20;;;12.10;93.00;;;;;;5033157;28;20933;-70
2022/08/06 04:08:05;;;;;;;2.07;1.97;;;12.00;92.80;;;;;;5032291;28;20465;-77
2022/08/06 04:10:42;;;;;;;2.30;2.10;;;12.00;91.80;;;;;;5032624;28;20453;-70
2022/08/06 04:13:17;;;;;;;2.33;1.80;;;12.00;92.40;;;;;;5033313;28;20410;-70
2022/08/06 04:15:43;;;;;;;2.03;1.77;;;12.00;94.40;;;;;;5033010;28;20480;-69
2022/08/06 04:18:17;;;;;;;3.33;2.07;;;12.00;93.70;;;;;;5032658;28;20437;-70
2022/08/06 04:20:46;;;;;;;2.90;2.00;;;12.00;90.60;;;;;;5032884;28;20436;-70
2022/08/06 04:23:12;;;;;;;3.33;2.20;;;12.00;91.40;;;;;;5033633;28;20402;-70
2022/08/06 04:25:44;;;;;;;3.47;1.77;;;12.00;94.20;;;;;;5032724;28;20915;-70
2022/08/06 04:28:12;;;;;;;2.47;2.27;;;12.00;91.60;;;;;;5031952;28;20436;-78
2022/08/06 04:30:40;;;;;;;2.27;2.17;;;12.00;92.80;;;;;;5032693;28;20775;-69
2022/08/06 04:33:13;;;;;;;1.77;1.67;;;12.10;92.50;;;;;;5032040;28;20429;-77
2022/08/06 04:35:40;;;;;;;2.57;1.80;;;12.10;93.60;;;;;;5033035;28;20413;-70
2022/08/06 04:38:08;;;;;;;1.60;1.50;;;12.10;92.80;;;;;;5031657;28;20946;-78
2022/08/06 04:40:35;;;;;;;3.10;2.10;;;12.10;93.80;;;;;;5032901;28;20879;-75
2022/08/06 04:43:04;;;;;;;1.93;1.80;;;12.10;94.70;;;;;;5032543;28;20965;-75
2022/08/06 04:45:30;;;;;;;2.37;1.87;;;12.10;94.40;;;;;;5033398;28;20516;-75
2022/08/06 04:47:57;;;;;;;8.73;2.20;;;12.00;97.70;;;;;;5035675;28;20472;-76
2022/08/06 04:50:23;;;;;;;2.57;2.37;;;12.00;97.90;;;;;;5035224;28;20934;-76
2022/08/06 04:52:48;;;;;;;2.03;1.93;;;12.00;99.90;;;;;;5036751;28;20381;-68
2022/08/06 04:55:14;;;;;;;3.57;2.47;;;12.10;99.90;;;;;;5036501;28;20194;-76
2022/08/06 04:57:40;;;;;;;3.53;1.83;;;12.10;99.90;;;;;;5035793;28;20226;-76
2022/08/06 05:00:06;;;;;;;1.67;1.57;;;12.20;99.90;;;;;;5036349;28;20214;-76
2022/08/06 05:02:32;;;;;;;2.73;1.90;;;12.30;99.90;;;;;;5036494;28;20176;-68
2022/08/06 05:04:58;;;;;;;1.97;1.87;;;12.30;99.90;;;;;;5035660;28;20454;-68
2022/08/06 05:07:28;;;;;;;2.30;2.10;;;12.30;99.90;;;;;;5035339;28;20207;-76
2022/08/06 05:09:58;;;;;;;1.87;1.77;;;12.40;99.90;;;;;;5036207;28;20418;-76
2022/08/06 05:12:38;;;;;;;3.67;1.90;;;12.50;99.90;;;;;;5036274;28;20406;-75
2022/08/06 05:15:14;;;;;;;1.80;1.70;;;12.60;99.90;;;;;;5036111;28;20426;-76
2022/08/06 05:17:49;;;;;;;4.03;2.00;;;12.50;99.90;;;;;;5035228;28;20828;-68
2022/08/06 05:20:17;;;;;;;1.80;1.70;;;12.60;99.90;;;;;;5035966;28;20435;-67
2022/08/06 05:22:47;;;;;;;2.33;1.73;;;12.60;99.90;;;;;;5035645;28;20417;-76
2022/08/06 05:25:13;;;;;;;3.10;2.00;;;12.70;99.90;;;;;;5035846;28;20434;-67
2022/08/06 05:27:40;;;;;;;4.03;2.33;;;12.80;99.90;;;;;;5035033;28;20517;-76
2022/08/06 05:30:07;;;;;;;1.87;1.77;;;12.90;99.90;;;;;;5035665;28;20414;-67
2022/08/06 05:32:43;;;;;;;1.70;1.60;;;12.80;99.90;;;;;;5035944;28;20395;-68
2022/08/06 05:35:09;;;;;;;1.80;1.70;;;12.90;99.90;;;;;;5035617;28;20473;-67
2022/08/06 05:37:35;;;;;;;1.90;1.80;;;12.90;99.90;;;;;;5034901;28;20422;-76
2022/08/06 05:40:01;;;;;;;1.80;1.70;;;12.90;99.90;;;;;;5035653;28;20187;-68
2022/08/06 05:42:26;;;;;;;1.70;1.60;;;13.00;99.90;;;;;;5035592;28;20168;-67
2022/08/06 05:44:52;;;;;;;1.53;1.43;;;13.00;99.90;;;;;;5035409;28;20203;-69
2022/08/06 05:47:34;;;;;;;2.27;1.70;;;13.10;99.90;;;;;;5034510;28;20208;-76
2022/08/06 05:50:14;;;;;;;3.00;1.73;;;13.10;99.90;;;;;;5035861;28;20168;-68
2022/08/06 05:53:02;;;;;;;3.33;1.60;;;13.20;99.90;;;;;;5034567;28;20410;-69
2022/08/06 05:55:54;;;;;;;1.50;1.40;;;13.30;99.90;;;;;;5035571;28;20391;-75
2022/08/06 05:58:36;;;;;;;2.10;2.00;;;13.50;99.90;;;;;;5036106;28;20423;-69
2022/08/06 06:01:05;;;;;;;3.30;1.73;;;13.60;99.90;;;;;;5035449;28;20414;-73
2022/08/06 06:03:31;;;;;;;6.70;1.70;;;13.60;99.90;;;;;;5035457;28;20435;-74
2022/08/06 06:05:59;;;;;;;1.63;1.53;;;13.70;99.90;;;;;;5035159;28;20417;-74
2022/08/06 06:08:26;;;;;;;3.70;1.67;;;13.90;99.90;;;;;;5034522;28;20461;-73
2022/08/06 06:10:52;;;;;;;2.53;1.60;;;14.00;99.90;;;;;;5035184;28;20474;-70
2022/08/06 06:13:18;;;;;;;3.70;1.77;;;14.10;97.30;;;;;;5033991;28;20402;-71
2022/08/06 06:15:50;;;;;;;1.60;1.50;;;14.20;99.90;;;;;;5033369;28;20438;-74
2022/08/06 06:18:27;;;;;;;2.00;1.90;;;14.30;99.90;;;;;;5032982;28;20845;-71
2022/08/06 06:21:10;;;;;;;1.37;1.23;;;14.30;99.90;;;;;;5034701;28;20410;-77
2022/08/06 06:23:55;;;;;;;4.17;1.90;;;14.40;94.50;;;;;;5033659;28;20426;-76
2022/08/06 06:26:36;;;;;;;3.07;1.33;;;14.40;99.80;;;;;;5033659;28;20822;-70
2022/08/06 06:29:04;;;;;;;1.50;1.40;;;14.60;99.90;;;;;;5034717;28;20922;-71
2022/08/06 06:31:45;;;;;;;2.03;1.60;;;14.60;93.70;;;;;;5032900;28;20385;-77
2022/08/06 06:34:59;;;;;;;1.73;1.30;;;14.80;93.80;;;;;;5033725;28;20505;-71
2022/08/06 06:37:43;;;;;;;1.87;1.30;;;14.90;74.40;;;;;;5026942;28;20570;-71
2022/08/06 06:40:44;;;;;;;3.80;1.60;;;15.00;72.30;;;;;;5017300;28;20426;-78
2022/08/06 06:43:16;;;;;;;1.50;1.30;;;15.10;57.00;;;;;;5029182;28;20939;-76
2022/08/06 06:45:53;;;;;;;1.70;1.60;;;15.10;73.00;;;;;;5033095;28;20864;-70
2022/08/06 06:48:34;;;;;;;2.23;1.20;;;15.20;64.60;;;;;;5032211;28;20876;-75
2022/08/06 06:51:09;;;;;;;6.50;1.60;;;15.30;56.60;;;;;;5032966;28;20752;-76
2022/08/06 06:53:40;;;;;;;2.70;1.43;;;15.40;74.00;;;;;;5032916;28;20437;-72
2022/08/06 06:56:08;;;;;;;2.53;1.40;;;15.50;1.30;;;;;;5031860;28;20460;-77
2022/08/06 06:58:50;;;;;;;2.03;1.40;;;15.60;13.00;;;;;;5032877;28;20977;-71
2022/08/06 07:01:17;;;;;;;2.17;1.27;;;15.60;1.00;;;;;;5033891;28;20422;-71
2022/08/06 07:03:45;;;;;;;1.53;1.30;;;15.80;1.00;;;;;;5034300;28;20915;-78
2022/08/06 07:06:12;;;;;;;1.70;1.60;;;15.80;1.00;;;;;;5031773;28;20453;-78
2022/08/06 07:08:44;;;;;;;2.23;1.03;;;15.80;11.80;;;;;;5032818;28;20453;-77
2022/08/06 07:11:13;;;;;;;1.77;1.23;;;15.90;1.00;;;;;;5033781;28;20414;-72
2022/08/06 07:13:40;;;;;;;1.20;1.10;;;16.00;1.00;;;;;;5032642;28;20509;-71
2022/08/06 07:16:06;;;;;;;1.77;1.30;;;16.10;1.00;;;;;;5032879;28;21011;-71
2022/08/06 07:18:34;;;;;;;1.87;1.20;;;16.20;1.00;;;;;;5032590;28;20777;-76
2022/08/06 07:21:01;;;;;;;1.87;1.40;;;16.30;1.00;;;;;;5033775;28;20425;-77
2022/08/06 07:23:28;;;;;;;2.87;1.70;;;16.30;1.00;;;;;;5032554;28;20940;-70
2022/08/06 07:25:54;;;;;;;1.77;1.40;;;16.40;1.00;;;;;;5032881;28;20430;-71
2022/08/06 07:28:25;;;;;;;2.37;1.10;;;16.50;1.00;;;;;;5033030;28;20480;-71
2022/08/06 07:30:51;;;;;;;3.43;1.37;;;16.50;1.00;;;;;;5033239;28;20429;-70
2022/08/06 07:33:18;;;;;;;1.73;1.30;;;16.60;1.00;;;;;;5032046;28;20476;-71
2022/08/06 07:35:46;;;;;;;1.40;1.10;;;16.70;1.00;;;;;;5033597;28;20890;-71
2022/08/06 07:38:15;;;;;;;1.87;1.50;;;16.80;1.00;;;;;;5032604;28;20766;-71
2022/08/06 07:40:48;;;;;;;2.17;1.63;;;16.90;1.00;;;;;;5033672;28;20438;-71
2022/08/06 07:43:28;;;;;;;2.70;1.33;;;17.00;1.00;;;;;;5032938;28;20906;-71
2022/08/06 07:45:56;;;;;;;1.63;1.20;;;17.00;1.00;;;;;;5033410;28;20465;-71
2022/08/06 07:48:32;;;;;;;2.03;1.37;;;17.20;1.00;;;;;;5031161;28;20462;-76
2022/08/06 07:50:59;;;;;;;3.00;2.00;;;17.20;1.00;;;;;;5032295;28;20919;-72
2022/08/06 07:53:26;;;;;;;3.60;1.30;;;17.00;1.00;;;;;;5032186;28;20425;-71
2022/08/06 07:55:52;;;;;;;8.57;1.40;;;17.00;1.00;;;;;;5033281;28;20481;-73
2022/08/06 07:58:19;;;;;;;5.00;1.60;;;17.10;1.00;;;;;;5032649;28;20426;-72
2022/08/06 08:00:47;;;;;;;1.73;1.63;;;17.10;1.00;;;;;;5031949;28;20456;-71
2022/08/06 08:06:18;;;;;;;2.80;2.40;;;17.30;1.00;;;;;;5033178;28;20398;-76
2022/08/06 08:08:46;;;;;;;2.30;2.03;;;17.50;1.00;;;;;;5031876;28;20541;-70
2022/08/06 08:11:14;;;;;;;2.10;1.70;;;17.50;1.00;;;;;;5033328;28;20437;-70
2022/08/06 08:13:40;;;;;;;3.60;1.73;;;17.70;1.00;;;;;;5032288;28;20430;-71
2022/08/06 08:16:08;;;;;;;2.50;2.30;;;17.80;1.00;;;;;;5032538;28;20473;-77
2022/08/06 08:18:34;;;;;;;2.53;1.50;;;17.90;1.00;;;;;;5031520;28;20468;-71
2022/08/06 08:21:01;;;;;;;2.37;1.97;;;17.90;1.00;;;;;;5035529;28;20453;-71
2022/08/06 08:23:30;;;;;;;6.80;2.17;;;18.00;1.00;;;;;;5037291;28;20402;-77
2022/08/06 08:25:58;;;;;;;2.47;1.83;;;18.00;1.00;;;;;;5036901;28;20448;-76
2022/08/06 08:28:24;;;;;;;1.80;1.60;;;18.00;1.00;;;;;;5036241;28;20488;-69
2022/08/06 08:30:50;;;;;;;3.47;1.67;;;18.00;99.90;;;;;;5036764;28;20906;-70
2022/08/06 08:33:19;;;;;;;2.10;1.90;;;18.00;99.90;;;;;;5035562;28;20413;-77
2022/08/06 08:35:47;;;;;;;2.77;2.10;;;18.00;1.00;;;;;;5036786;28;20394;-77
2022/08/06 08:38:12;;;;;;;7.47;2.13;;;18.00;1.00;;;;;;5034138;28;20429;-71
2022/08/06 08:40:40;;;;;;;3.83;1.90;;;18.10;99.90;;;;;;5036608;28;20771;-76
2022/08/06 08:43:07;;;;;;;2.43;2.10;;;18.30;99.90;;;;;;5036466;28;20184;-77
2022/08/06 08:45:34;;;;;;;4.80;2.10;;;18.40;99.90;;;;;;5028148;28;20437;-76
2022/08/06 08:48:01;;;;;;;4.23;2.30;;;18.40;99.90;;;;;;5015803;28;20458;-71
2022/08/06 08:50:29;;;;;;;1.97;1.87;;;18.70;99.90;;;;;;5025686;28;20907;-76
2022/08/06 08:53:09;;;;;;;2.80;2.60;;;18.90;99.90;;;;;;5036922;28;20468;-76
2022/08/06 08:55:35;;;;;;;2.20;2.00;;;19.00;99.90;;;;;;5031060;28;20422;-69
2022/08/06 08:58:02;;;;;;;4.70;2.27;;;18.90;99.90;;;;;;5031007;28;20431;-71
2022/08/06 09:00:28;;;;;;;2.13;1.90;;;18.70;99.90;;;;;;5025228;28;20426;-70
2022/08/06 09:02:54;;;;;;;2.47;2.00;;;18.60;99.90;;;;;;5035627;28;20813;-70
2022/08/06 09:05:20;;;;;;;2.27;1.77;;;18.50;99.90;;;;;;5035699;28;20636;-70
2022/08/06 09:07:46;;;;;;;3.93;2.20;;;18.30;1.00;;;;;;5035443;28;20942;-77
2022/08/06 09:10:12;;;;;;;3.27;2.30;;;18.30;1.00;;;;;;5034755;28;20432;-73
2022/08/06 09:12:39;;;;;;;2.83;1.90;;;18.40;99.90;;;;;;5036233;28;20398;-71
2022/08/06 09:15:05;;;;;;;2.23;2.03;;;18.80;99.90;;;;;;5035015;28;20205;-70
2022/08/06 09:17:31;;;;;;;2.50;1.87;;;19.20;99.90;;;;;;5033968;28;20436;-70
2022/08/06 09:19:57;;;;;;;2.93;2.40;;;19.50;99.90;;;;;;5033137;28;20455;-70
2022/08/06 09:22:23;;;;;;;3.10;1.97;;;19.70;99.90;;;;;;5016388;28;20447;-77
2022/08/06 09:24:49;;;;;;;3.20;2.90;;;19.90;99.90;;;;;;5023215;28;20167;-70
2022/08/06 09:27:16;;;;;;;2.47;2.27;;;19.90;99.90;;;;;;5035153;28;20187;-75
2022/08/06 09:29:48;;;;;;;3.80;2.97;;;19.90;99.90;;;;;;5034692;28;20163;-69
2022/08/06 09:32:44;;;;;;;3.73;3.30;;;20.00;99.90;;;;;;5033376;28;20418;-70
2022/08/06 09:35:20;;;;;;;3.03;2.50;;;20.20;99.90;;;;;;5035711;28;20421;-77
2022/08/06 09:37:46;;;;;;;3.40;2.73;;;20.20;99.90;;;;;;5033500;28;20949;-77
2022/08/06 09:40:14;;;;;;;4.03;2.73;;;20.30;99.90;;;;;;5033685;28;20434;-76
2022/08/06 09:42:48;;;;;;;4.83;2.93;;;20.40;99.90;;;;;;5035892;28;20395;-77
2022/08/06 09:45:19;;;;;;;3.50;3.20;;;20.70;99.90;;;;;;5023554;28;20847;-70
2022/08/06 09:47:46;;;;;;;3.90;3.43;;;20.60;99.90;;;;;;5014823;28;20459;-77
2022/08/06 09:50:11;;;;;;;3.13;2.80;;;20.50;99.90;;;;;;5025420;28;20426;-70
2022/08/06 09:52:37;;;;;;;4.13;2.83;;;20.70;99.90;;;;;;5035038;28;20434;-76
2022/08/06 09:55:03;;;;;;;6.50;3.43;;;20.90;99.90;;;;;;5035021;28;20168;-76
2022/08/06 09:57:44;;;;;;;3.27;2.97;;;21.40;99.90;;;;;;5034455;28;20218;-68
2022/08/06 10:00:11;;;;;;;3.03;2.83;;;22.00;99.90;;;;;;5034052;28;20428;-76
2022/08/06 10:02:38;;;;;;;3.73;3.03;;;22.50;99.90;;;;;;5035529;28;20391;-69
2022/08/06 10:05:11;;;;;;;3.13;2.83;;;22.70;99.90;;;;;;5035026;28;20529;-76
2022/08/06 10:07:37;;;;;;;3.83;3.43;;;22.40;99.90;;;;;;5034253;28;20458;-68
2022/08/06 10:10:05;;;;;;;6.67;3.10;;;21.80;99.90;;;;;;5034934;28;20410;-75
2022/08/06 10:12:32;;;;;;;4.80;3.47;;;22.00;99.90;;;;;;5035136;28;20477;-68
2022/08/06 10:14:59;;;;;;;3.93;3.53;;;22.30;99.90;;;;;;5034787;28;20440;-68
2022/08/06 10:17:25;;;;;;;4.33;2.80;;;22.70;99.90;;;;;;5034098;28;20641;-75
2022/08/06 10:20:13;;;;;;;3.60;3.30;;;22.50;99.90;;;;;;5034843;28;20414;-67
2022/08/06 10:22:54;;;;;;;4.07;3.33;;;22.70;99.90;;;;;;5035030;28;20915;-68
2022/08/06 10:25:22;;;;;;;4.67;3.77;;;23.10;99.90;;;;;;5034593;28;20457;-67
2022/08/06 10:27:49;;;;;;;4.90;3.37;;;23.30;99.90;;;;;;5033457;28;20458;-67
2022/08/06 10:30:15;;;;;;;4.97;3.63;;;23.40;99.90;;;;;;5034628;28;20426;-67
2022/08/06 10:32:53;;;;;;;5.27;3.57;;;23.60;99.90;;;;;;5033562;28;20410;-68
2022/08/06 10:35:21;;;;;;;3.70;3.40;;;23.30;99.90;;;;;;5033211;28;20866;-76
2022/08/06 10:37:56;;;;;;;4.00;2.73;;;23.00;99.90;;;;;;5032536;28;20430;-76
2022/08/06 10:40:22;;;;;;;3.23;2.93;;;23.00;99.90;;;;;;5034426;28;20459;-76
2022/08/06 10:42:49;;;;;;;3.53;3.20;;;23.40;99.90;;;;;;5034492;28;20410;-68
2022/08/06 10:45:15;;;;;;;3.90;3.17;;;23.80;99.90;;;;;;5033685;28;20414;-77
2022/08/06 10:47:46;;;;;;;3.23;2.63;;;24.40;99.90;;;;;;5032178;28;20549;-76
2022/08/06 10:50:13;;;;;;;4.70;3.10;;;24.70;99.90;;;;;;5032936;28;20540;-76
2022/08/06 10:52:41;;;;;;;4.70;3.17;;;24.50;99.90;;;;;;5034445;28;20879;-74
2022/08/06 10:55:08;;;;;;;3.93;3.50;;;24.60;99.90;;;;;;5032447;28;20842;-76
2022/08/06 10:57:34;;;;;;;3.07;2.87;;;24.70;99.90;;;;;;5033272;28;20434;-67
2022/08/06 11:00:01;;;;;;;7.03;3.13;;;24.10;99.90;;;;;;5034094;28;20415;-76
2022/08/06 11:02:38;;;;;;;4.03;3.03;;;23.50;99.90;;;;;;5033837;28;20407;-76
2022/08/06 11:05:15;;;;;;;3.47;3.17;;;23.50;99.90;;;;;;5033971;28;20956;-76
2022/08/06 11:08:18;;;;;;;3.60;3.30;;;24.10;99.90;;;;;;5032014;28;20462;-76
2022/08/06 11:11:20;;;;;;;4.07;3.50;;;24.40;99.90;;;;;;5033771;28;20421;-76
2022/08/06 11:14:07;;;;;;;3.10;2.90;;;24.50;99.90;;;;;;5033917;28;20406;-76
2022/08/06 11:16:33;;;;;;;4.43;3.60;;;24.40;99.90;;;;;;5033071;28;20394;-67
2022/08/06 11:19:04;;;;;;;3.43;2.67;;;24.70;99.90;;;;;;5033210;28;20938;-68
2022/08/06 11:21:49;;;;;;;3.40;2.90;;;25.30;99.90;;;;;;5032663;28;20548;-76
2022/08/06 11:24:15;;;;;;;3.93;3.53;;;25.90;99.90;;;;;;5033485;28;20426;-74
2022/08/06 11:26:43;;;;;;;3.13;2.93;;;26.20;99.90;;;;;;5032979;28;20390;-67
2022/08/06 11:29:15;;;;;;;3.90;3.10;;;26.30;99.90;;;;;;5033487;28;20483;-68
2022/08/06 11:31:50;;;;;;;3.07;2.77;;;26.60;99.90;;;;;;5033737;28;20909;-68
2022/08/06 11:34:21;;;;;;;4.60;3.90;;;26.60;99.90;;;;;;5033500;28;20418;-78
2022/08/06 11:36:51;;;;;;;3.20;2.90;;;27.00;99.90;;;;;;5031531;28;20882;-69
2022/08/06 11:39:20;;;;;;;5.53;3.47;;;26.90;99.90;;;;;;5032872;28;20434;-69
2022/08/06 11:41:49;;;;;;;3.50;3.10;;;26.80;99.90;;;;;;5032040;28;20910;-67
2022/08/06 11:44:18;;;;;;;3.50;3.20;;;26.70;99.90;;;;;;5033534;28;20540;-76
2022/08/06 11:46:46;;;;;;;4.20;3.90;;;26.90;99.90;;;;;;5032538;28;20454;-77
2022/08/06 11:49:38;;;;;;;4.40;3.37;;;26.70;99.90;;;;;;5033269;28;20442;-69
2022/08/06 11:52:04;;;;;;;3.80;3.50;;;25.60;99.90;;;;;;5032480;28;20413;-69
2022/08/06 11:54:32;;;;;;;3.10;2.80;;;25.20;99.90;;;;;;5032743;28;20751;-74
2022/08/06 11:57:01;;;;;;;3.77;3.20;;;24.80;99.90;;;;;;5032005;28;20410;-72
2022/08/06 11:59:39;;;;;;;3.53;3.23;;;25.60;99.90;;;;;;5033310;28;20461;-71
2022/08/06 12:02:06;;;;;;;5.10;4.20;;;25.40;99.90;;;;;;5033023;28;20501;-73
2022/08/06 12:04:35;;;;;;;3.70;3.37;;;24.80;99.90;;;;;;5033083;28;20402;-73
2022/08/06 12:07:28;;;;;;;3.73;3.30;;;24.30;99.90;;;;;;5030360;28;20446;-72
2022/08/06 12:10:05;;;;;;;5.63;3.80;;;23.70;99.90;;;;;;5033277;28;20505;-70
2022/08/06 12:12:37;;;;;;;4.10;3.20;;;23.90;99.90;;;;;;5032752;28;20866;-63
2022/08/06 12:15:12;;;;;;;4.67;3.67;;;24.40;99.90;;;;;;5032972;28;20533;-65
2022/08/06 12:17:40;;;;;;;4.00;3.10;;;25.10;99.90;;;;;;5030905;28;20474;-65
2022/08/06 12:20:07;;;;;;;6.50;3.00;;;25.70;99.90;;;;;;5032901;28;20403;-69
2022/08/06 12:22:35;;;;;;;3.80;3.27;;;26.20;99.90;;;;;;5032639;28;20426;-64
2022/08/06 12:25:04;;;;;;;3.43;2.90;;;26.70;99.90;;;;;;5033273;28;20930;-64
2022/08/06 12:27:35;;;;;;;3.60;3.23;;;27.10;99.90;;;;;;5031748;28;20465;-69
2022/08/06 12:30:03;;;;;;;4.17;3.10;;;27.40;99.90;;;;;;5032524;28;20763;-64
2022/08/06 12:32:32;;;;;;;4.27;2.60;;;27.00;99.90;;;;;;5032816;28;20536;-71
2022/08/06 12:35:00;;;;;;;4.37;3.97;;;26.20;99.90;;;;;;5032795;28;20468;-64
2022/08/06 12:37:43;;;;;;;3.93;3.53;;;25.10;99.90;;;;;;5032054;28;20433;-65
2022/08/06 12:40:29;;;;;;;9.13;3.47;;;25.30;99.90;;;;;;5032520;28;20430;-69
2022/08/06 12:43:00;;;;;;;4.90;3.70;;;25.00;99.90;;;;;;5032900;28;20406;-67
2022/08/06 12:45:28;;;;;;;5.70;4.10;;;25.30;99.90;;;;;;5031947;28;20426;-70
2022/08/06 12:47:58;;;;;;;4.50;3.70;;;26.40;99.90;;;;;;5031563;28;20465;-64
2022/08/06 12:50:24;;;;;;;5.23;3.60;;;26.80;99.90;;;;;;5032670;28;20418;-64
2022/08/06 12:53:06;;;;;;;2.97;2.77;;;26.50;99.90;;;;;;5033023;28;20403;-64
2022/08/06 12:55:41;;;;;;;3.97;3.60;;;25.90;99.90;;;;;;5032890;28;20879;-70
2022/08/06 12:58:09;;;;;;;3.83;2.73;;;25.50;99.90;;;;;;5031744;28;20479;-70
2022/08/06 13:00:36;;;;;;;3.10;2.50;;;25.10;99.90;;;;;;5032952;28;20414;-70
2022/08/06 13:03:05;;;;;;;4.63;3.37;;;25.00;99.90;;;;;;5032937;28;20875;-70
2022/08/06 13:05:32;;;;;;;3.60;2.20;;;25.10;99.90;;;;;;5032446;28;20398;-70
2022/08/06 13:07:58;;;;;;;11.63;2.20;;;24.90;99.90;;;;;;5035268;28;20818;-64